sensor_id;sensor_type;location;lat;lon;timestamp;pressure;altitude;pressure_sealevel;temperature;humidity
30614;BME280;17381;51.690;5.270;2023-02-28T08:52:01;103172.56;;;4.47;49.54
30614;BME280;17381;51.690;5.270;2023-02-28T08:54:34;103174.56;;;4.54;48.31
30614;BME280;17381;51.690;5.270;2023-02-28T08:57:30;103177.22;;;4.80;47.28
30614;BME280;17381;51.690;5.270;2023-02-28T09:00:30;103165.34;;;5.12;47.93
30614;BME280;17381;51.690;5.270;2023-02-28T09:03:16;103161.69;;;5.87;47.83
30614;BME280;17381;51.690;5.270;2023-02-28T09:06:18;103173.28;;;7.17;43.55
30614;BME280;17381;51.690;5.270;2023-02-28T09:08:59;103166.09;;;7.78;41.35
30614;BME280;17381;51.690;5.270;2023-02-28T09:11:55;103151.69;;;8.38;42.22
30614;BME280;17381;51.690;5.270;2023-02-28T09:14:50;103161.47;;;8.89;40.94
30614;BME280;17381;51.690;5.270;2023-02-28T09:17:35;103160.47;;;9.31;40.72
30614;BME280;17381;51.690;5.270;2023-02-28T09:20:19;103165.50;;;9.72;39.73
30614;BME280;17381;51.690;5.270;2023-02-28T09:23:17;103156.59;;;10.20;39.69
30614;BME280;17381;51.690;5.270;2023-02-28T09:26:08;103161.63;;;10.74;39.72
30614;BME280;17381;51.690;5.270;2023-02-28T09:29:08;103163.88;;;11.21;36.78
30614;BME280;17381;51.690;5.270;2023-02-28T09:32:10;103158.63;;;11.21;37.81
30614;BME280;17381;51.690;5.270;2023-02-28T09:35:00;103142.03;;;11.32;34.88
30614;BME280;17381;51.690;5.270;2023-02-28T09:37:57;103155.31;;;11.48;34.58
30614;BME280;17381;51.690;5.270;2023-02-28T09:40:52;103156.25;;;11.53;33.28
30614;BME280;17381;51.690;5.270;2023-02-28T09:43:58;103168.44;;;11.42;31.39
30614;BME280;17381;51.690;5.270;2023-02-28T09:54:36;103156.66;;;12.10;33.53
30614;BME280;17381;51.690;5.270;2023-02-28T09:57:35;103153.34;;;12.55;31.26
30614;BME280;17381;51.690;5.270;2023-02-28T10:00:51;103156.06;;;12.84;31.08
30614;BME280;17381;51.690;5.270;2023-02-28T10:08:04;103141.16;;;13.22;30.53
30614;BME280;17381;51.690;5.270;2023-02-28T10:11:17;103145.50;;;13.06;30.10
30614;BME280;17381;51.690;5.270;2023-02-28T10:14:19;103150.84;;;13.24;31.02
30614;BME280;17381;51.690;5.270;2023-02-28T10:21:03;103111.22;;;13.41;28.73
30614;BME280;17381;51.690;5.270;2023-02-28T10:23:49;103129.69;;;13.70;29.62
30614;BME280;17381;51.690;5.270;2023-02-28T10:26:49;103141.13;;;13.89;30.38
30614;BME280;17381;51.690;5.270;2023-02-28T10:29:32;103133.09;;;14.14;29.82
30614;BME280;17381;51.690;5.270;2023-02-28T10:32:38;103128.59;;;14.36;27.90
30614;BME280;17381;51.690;5.270;2023-02-28T10:35:28;103098.56;;;14.46;29.82
30614;BME280;17381;51.690;5.270;2023-02-28T10:38:16;103119.53;;;14.83;26.92
30614;BME280;17381;51.690;5.270;2023-02-28T10:41:33;103130.13;;;14.83;27.03
30614;BME280;17381;51.690;5.270;2023-02-28T10:44:34;103119.41;;;15.01;29.00
30614;BME280;17381;51.690;5.270;2023-02-28T10:51:07;103085.78;;;15.13;28.18
30614;BME280;17381;51.690;5.270;2023-02-28T10:53:58;103110.25;;;15.38;28.08
30614;BME280;17381;51.690;5.270;2023-02-28T10:57:24;103108.31;;;15.60;26.79
30614;BME280;17381;51.690;5.270;2023-02-28T10:59:51;103108.88;;;15.89;27.67
30614;BME280;17381;51.690;5.270;2023-02-28T11:02:36;103091.09;;;15.98;26.71
30614;BME280;17381;51.690;5.270;2023-02-28T11:05:51;103087.06;;;16.37;27.12
30614;BME280;17381;51.690;5.270;2023-02-28T11:08:54;103088.53;;;16.58;27.08
30614;BME280;17381;51.690;5.270;2023-02-28T11:15:59;103084.66;;;16.84;26.08
30614;BME280;17381;51.690;5.270;2023-02-28T11:19:06;103078.09;;;17.05;26.69
30614;BME280;17381;51.690;5.270;2023-02-28T11:40:12;103064.72;;;17.57;23.33
30614;BME280;17381;51.690;5.270;2023-02-28T11:55:39;103055.00;;;18.01;24.84
30614;BME280;17381;51.690;5.270;2023-02-28T12:23:53;103052.53;;;19.07;22.79
30614;BME280;17381;51.690;5.270;2023-02-28T12:26:50;103033.88;;;19.07;23.32
30614;BME280;17381;51.690;5.270;2023-02-28T12:33:49;103031.34;;;19.03;21.62
30614;BME280;17381;51.690;5.270;2023-02-28T12:36:53;103014.84;;;18.87;22.99
30614;BME280;17381;51.690;5.270;2023-02-28T12:39:49;103033.22;;;19.32;22.61
30614;BME280;17381;51.690;5.270;2023-02-28T12:42:41;103012.53;;;19.42;22.57
30614;BME280;17381;51.690;5.270;2023-02-28T12:45:48;102990.06;;;19.17;22.25
30614;BME280;17381;51.690;5.270;2023-02-28T12:48:28;103024.00;;;19.44;22.70
30614;BME280;17381;51.690;5.270;2023-02-28T12:51:09;102998.97;;;19.49;22.87
30614;BME280;17381;51.690;5.270;2023-02-28T12:54:23;103015.06;;;20.07;22.56
30614;BME280;17381;51.690;5.270;2023-02-28T12:57:18;103002.56;;;20.37;23.30
30614;BME280;17381;51.690;5.270;2023-02-28T13:00:32;103011.81;;;20.55;20.70
30614;BME280;17381;51.690;5.270;2023-02-28T13:10:50;102986.31;;;20.15;22.62
30614;BME280;17381;51.690;5.270;2023-02-28T13:13:40;102982.25;;;20.32;23.01
30614;BME280;17381;51.690;5.270;2023-02-28T13:16:21;102947.56;;;20.30;22.71
30614;BME280;17381;51.690;5.270;2023-02-28T13:19:26;102983.13;;;20.60;20.79
30614;BME280;17381;51.690;5.270;2023-02-28T13:28:57;102976.88;;;20.60;22.63
30614;BME280;17381;51.690;5.270;2023-02-28T13:31:13;102958.47;;;20.24;21.98
30614;BME280;17381;51.690;5.270;2023-02-28T13:50:37;102967.44;;;21.01;22.01
30614;BME280;17381;51.690;5.270;2023-02-28T13:53:48;102968.38;;;20.47;20.80
30614;BME280;17381;51.690;5.270;2023-02-28T13:56:58;102959.50;;;20.18;21.36
30614;BME280;17381;51.690;5.270;2023-02-28T14:06:22;102962.00;;;20.24;23.03
30614;BME280;17381;51.690;5.270;2023-02-28T14:09:27;102924.44;;;20.02;20.58
30614;BME280;17381;51.690;5.270;2023-02-28T14:21:35;102954.50;;;19.50;22.94
30614;BME280;17381;51.690;5.270;2023-02-28T14:24:30;102956.84;;;19.60;23.51
30614;BME280;17381;51.690;5.270;2023-02-28T14:37:13;102901.53;;;19.05;21.32
30614;BME280;17381;51.690;5.270;2023-02-28T14:39:51;102919.56;;;18.61;23.39
30614;BME280;17381;51.690;5.270;2023-02-28T14:42:58;102946.41;;;18.53;23.95
30614;BME280;17381;51.690;5.270;2023-02-28T14:45:43;102944.16;;;18.00;23.41
30614;BME280;17381;51.690;5.270;2023-02-28T14:48:21;102935.59;;;17.44;23.79
30614;BME280;17381;51.690;5.270;2023-02-28T14:51:09;102951.69;;;16.90;23.42
30614;BME280;17381;51.690;5.270;2023-02-28T14:57:31;102943.16;;;15.48;24.75
30614;BME280;17381;51.690;5.270;2023-02-28T15:00:22;102941.88;;;15.11;26.67
30614;BME280;17381;51.690;5.270;2023-02-28T15:06:45;102907.50;;;14.03;27.44
30614;BME280;17381;51.690;5.270;2023-02-28T15:09:21;102896.16;;;13.82;26.87
30614;BME280;17381;51.690;5.270;2023-02-28T15:12:06;102945.47;;;13.83;27.94
30614;BME280;17381;51.690;5.270;2023-02-28T15:14:56;102948.25;;;13.57;28.23
30614;BME280;17381;51.690;5.270;2023-02-28T15:17:51;102951.91;;;13.10;28.45
30614;BME280;17381;51.690;5.270;2023-02-28T15:20:28;102894.81;;;12.38;29.38
30614;BME280;17381;51.690;5.270;2023-02-28T15:23:00;102958.13;;;12.40;29.68
30614;BME280;17381;51.690;5.270;2023-02-28T15:26:16;102955.44;;;12.14;29.66
30614;BME280;17381;51.690;5.270;2023-02-28T15:29:20;102953.53;;;11.79;29.73
30614;BME280;17381;51.690;5.270;2023-02-28T15:32:14;102953.53;;;11.82;31.31
30614;BME280;17381;51.690;5.270;2023-02-28T15:34:53;102960.72;;;12.25;31.57
30614;BME280;17381;51.690;5.270;2023-02-28T15:43:16;102961.53;;;13.34;29.07
30614;BME280;17381;51.690;5.270;2023-02-28T15:46:16;102957.00;;;13.73;29.99
30614;BME280;17381;51.690;5.270;2023-02-28T15:49:04;102947.16;;;14.01;28.18
30614;BME280;17381;51.690;5.270;2023-02-28T15:52:05;102953.19;;;14.22;29.33
30614;BME280;17381;51.690;5.270;2023-02-28T15:59:24;102949.94;;;13.75;27.81
30614;BME280;17381;51.690;5.270;2023-02-28T16:17:49;102955.22;;;11.52;30.88
30614;BME280;17381;51.690;5.270;2023-02-28T16:20:30;102936.53;;;11.09;31.40
30614;BME280;17381;51.690;5.270;2023-02-28T16:23:18;102951.31;;;10.86;31.81
30614;BME280;17381;51.690;5.270;2023-02-28T16:25:53;102903.50;;;10.29;32.36
30614;BME280;17381;51.690;5.270;2023-02-28T17:04:15;102983.88;;;7.85;36.98
30614;BME280;17381;51.690;5.270;2023-02-28T17:07:17;102994.97;;;7.73;36.71
30614;BME280;17381;51.690;5.270;2023-02-28T17:09:58;102980.69;;;7.59;36.89
30614;BME280;17381;51.690;5.270;2023-02-28T17:12:59;102995.56;;;7.61;37.84
30614;BME280;17381;51.690;5.270;2023-02-28T17:16:01;102995.38;;;7.52;37.37
30614;BME280;17381;51.690;5.270;2023-02-28T17:18:36;103002.38;;;7.53;37.58
30614;BME280;17381;51.690;5.270;2023-02-28T17:21:30;102985.47;;;7.37;37.13
30614;BME280;17381;51.690;5.270;2023-02-28T17:23:59;102849.25;;;6.49;37.75
30614;BME280;17381;51.690;5.270;2023-02-28T17:26:43;103011.56;;;7.34;37.93
30614;BME280;17381;51.690;5.270;2023-02-28T17:29:24;103014.06;;;7.30;38.04
30614;BME280;17381;51.690;5.270;2023-02-28T17:32:24;103004.06;;;7.12;38.17
30614;BME280;17381;51.690;5.270;2023-02-28T17:35:00;103016.44;;;7.19;38.67
30614;BME280;17381;51.690;5.270;2023-02-28T17:37:38;103023.34;;;7.15;38.74
30614;BME280;17381;51.690;5.270;2023-02-28T17:40:26;103037.09;;;7.08;38.70
30614;BME280;17381;51.690;5.270;2023-02-28T17:43:09;103028.06;;;6.95;39.13
30614;BME280;17381;51.690;5.270;2023-02-28T17:46:03;103012.75;;;6.74;40.10
30614;BME280;17381;51.690;5.270;2023-02-28T17:48:59;103042.63;;;6.86;39.69
30614;BME280;17381;51.690;5.270;2023-02-28T17:52:10;103035.34;;;6.72;39.53
30614;BME280;17381;51.690;5.270;2023-02-28T17:55:02;102998.75;;;6.38;40.17
30614;BME280;17381;51.690;5.270;2023-02-28T17:57:41;103054.22;;;6.62;39.84
30614;BME280;17381;51.690;5.270;2023-02-28T18:01:12;103050.47;;;6.51;40.44
30614;BME280;17381;51.690;5.270;2023-02-28T18:04:00;103058.03;;;6.42;40.32
30614;BME280;17381;51.690;5.270;2023-02-28T18:06:46;103058.81;;;6.38;40.70
30614;BME280;17381;51.690;5.270;2023-02-28T18:10:23;103064.72;;;6.32;40.96
30614;BME280;17381;51.690;5.270;2023-02-28T18:13:31;103010.34;;;5.87;41.67
30614;BME280;17381;51.690;5.270;2023-02-28T18:16:16;103070.50;;;6.20;41.47
30614;BME280;17381;51.690;5.270;2023-02-28T18:22:07;103062.25;;;6.06;42.09
30614;BME280;17381;51.690;5.270;2023-02-28T18:24:52;103062.16;;;6.02;41.93
30614;BME280;17381;51.690;5.270;2023-02-28T18:27:37;103007.13;;;5.65;42.05
30614;BME280;17381;51.690;5.270;2023-02-28T18:30:55;103064.34;;;5.89;42.24
30614;BME280;17381;51.690;5.270;2023-02-28T18:33:31;103065.06;;;5.84;42.57
30614;BME280;17381;51.690;5.270;2023-02-28T18:36:26;103071.97;;;5.83;43.03
30614;BME280;17381;51.690;5.270;2023-02-28T18:39:02;102974.56;;;5.24;43.18
30614;BME280;17381;51.690;5.270;2023-02-28T18:41:43;103062.94;;;5.72;43.24
30614;BME280;17381;51.690;5.270;2023-02-28T18:44:17;103061.03;;;5.66;42.95
30614;BME280;17381;51.690;5.270;2023-02-28T18:47:34;103066.13;;;5.62;43.39
30614;BME280;17381;51.690;5.270;2023-02-28T18:50:21;103063.25;;;5.53;44.24
30614;BME280;17381;51.690;5.270;2023-02-28T18:53:06;103061.97;;;5.40;43.67
30614;BME280;17381;51.690;5.270;2023-02-28T18:55:36;103068.06;;;5.40;44.29
30614;BME280;17381;51.690;5.270;2023-02-28T18:58:57;103062.53;;;5.31;44.34
30614;BME280;17381;51.690;5.270;2023-02-28T19:01:27;103064.97;;;5.25;44.74
30614;BME280;17381;51.690;5.270;2023-02-28T19:04:04;103065.66;;;5.19;44.85
30614;BME280;17381;51.690;5.270;2023-02-28T19:06:34;103066.28;;;5.12;44.89
30614;BME280;17381;51.690;5.270;2023-02-28T19:09:07;103066.97;;;5.07;45.67
30614;BME280;17381;51.690;5.270;2023-02-28T19:11:46;103051.63;;;4.89;45.83
30614;BME280;17381;51.690;5.270;2023-02-28T19:15:00;103070.94;;;4.95;46.42
30614;BME280;17381;51.690;5.270;2023-02-28T19:17:36;103072.41;;;4.87;45.91
30614;BME280;17381;51.690;5.270;2023-02-28T19:20:42;103071.97;;;4.75;46.37
30614;BME280;17381;51.690;5.270;2023-02-28T19:23:30;103038.06;;;4.48;46.74
30614;BME280;17381;51.690;5.270;2023-02-28T19:26:33;103084.59;;;4.63;46.78
30614;BME280;17381;51.690;5.270;2023-02-28T19:29:06;103081.81;;;4.58;47.02
30614;BME280;17381;51.690;5.270;2023-02-28T19:31:50;103089.47;;;4.53;47.25
30614;BME280;17381;51.690;5.270;2023-02-28T19:34:32;103087.34;;;4.43;47.96
30614;BME280;17381;51.690;5.270;2023-02-28T19:37:08;103091.50;;;4.38;47.87
30614;BME280;17381;51.690;5.270;2023-02-28T19:46:30;103101.94;;;4.15;48.73
30614;BME280;17381;51.690;5.270;2023-02-28T19:56:49;103104.59;;;3.93;49.63
30614;BME280;17381;51.690;5.270;2023-02-28T20:00:19;103099.13;;;3.87;49.99
30614;BME280;17381;51.690;5.270;2023-02-28T20:03:38;103106.03;;;3.85;50.60
30614;BME280;17381;51.690;5.270;2023-02-28T20:06:41;103100.66;;;3.82;50.74
30614;BME280;17381;51.690;5.270;2023-02-28T20:09:28;103105.66;;;3.76;50.68
30614;BME280;17381;51.690;5.270;2023-02-28T20:13:05;103093.94;;;3.64;50.81
30614;BME280;17381;51.690;5.270;2023-02-28T20:18:56;103004.88;;;3.02;51.27
30614;BME280;17381;51.690;5.270;2023-02-28T20:21:34;103115.56;;;3.63;51.08
30614;BME280;17381;51.690;5.270;2023-02-28T20:24:14;103112.00;;;3.61;51.09
30614;BME280;17381;51.690;5.270;2023-02-28T20:27:38;103117.06;;;3.57;51.12
30614;BME280;17381;51.690;5.270;2023-02-28T20:30:18;103115.97;;;3.52;51.59
30614;BME280;17381;51.690;5.270;2023-02-28T20:33:18;103111.47;;;3.47;51.07
30614;BME280;17381;51.690;5.270;2023-02-28T20:36:37;103117.31;;;3.42;51.43
30614;BME280;17381;51.690;5.270;2023-02-28T20:39:06;103102.94;;;3.29;52.28
30614;BME280;17381;51.690;5.270;2023-02-28T20:42:30;103109.28;;;3.36;52.42
30614;BME280;17381;51.690;5.270;2023-02-28T20:46:01;103110.81;;;3.31;52.48
30614;BME280;17381;51.690;5.270;2023-02-28T20:52:34;103109.44;;;3.19;52.55
30614;BME280;17381;51.690;5.270;2023-02-28T23:43:08;103146.25;;;1.39;57.44
30614;BME280;17381;51.690;5.270;2023-02-28T23:46:21;103140.09;;;1.37;57.26
30614;BME280;17381;51.690;5.270;2023-02-28T23:52:42;103132.69;;;1.26;57.24
30614;BME280;17381;51.690;5.270;2023-02-28T23:56:11;103137.66;;;1.22;57.71
30614;BME280;17381;51.690;5.270;2023-02-28T23:59:13;103108.06;;;1.00;57.88
